Terminal Aerodrome Forecast
Issued by NWS Charleston, SC

Home | Current Version | Previous Version | Text Only | Print | Product List | Glossary On
Versions: 1 2 3 4 5 6 7 8 9 10 11 12 13 14 15 16 17 18
000
FTUS42 KCHS 251100
TAFSAV
TAF
KSAV 251120Z 2512/2612 26009KT P6SM SCT030
     FM252000 25009KT P6SM VCTS FEW035CB SCT045 BKN250
     FM260000 22004KT P6SM SCT050 BKN250=

USA.gov is the U.S. government's official web portal to all federal, state and local government web resources and services.